Time;durP1;ratioP1;P1;durP2;ratioP2;P2;SDS_P1;SDS_P2;PMS_P1;PMS_P2;Temp;Humidity;BMP_temperature;BMP_pressure;BME280_temperature;BME280_humidity;BME280_pressure;Samples;Min_cycle;Max_cycle;Signal;HPM_P1;HPM_P2
2022/11/11 00:00:37;;;;;;;3.40;2.70;;;10.80;99.90;;;;;;5056278;28;20196;-77
2022/11/11 00:03:05;;;;;;;4.43;2.70;;;10.70;99.90;;;;;;5055326;28;20248;-77
2022/11/11 00:05:33;;;;;;;2.93;2.50;;;10.70;99.90;;;;;;5054603;28;20180;-77
2022/11/11 00:07:58;;;;;;;3.57;2.60;;;10.70;99.90;;;;;;5055122;28;20201;-76
2022/11/11 00:10:31;;;;;;;3.77;2.77;;;10.70;99.90;;;;;;5055436;28;20180;-77
2022/11/11 00:13:00;;;;;;;3.83;2.57;;;10.70;99.90;;;;;;5055399;28;20169;-76
2022/11/11 00:15:27;;;;;;;3.97;2.60;;;10.70;99.90;;;;;;5054879;28;20170;-76
2022/11/11 00:26:12;;;;;;;5.40;3.13;;;10.60;99.90;;;;;;5036268;28;20173;-77
2022/11/11 00:28:38;;;;;;;4.37;3.27;;;10.70;99.90;;;;;;5050338;28;20213;-76
2022/11/11 00:31:07;;;;;;;4.47;2.93;;;10.60;99.90;;;;;;5058374;28;20207;-76
2022/11/11 00:33:32;;;;;;;5.43;3.50;;;10.60;99.90;;;;;;5060479;28;20280;-76
2022/11/11 00:36:03;;;;;;;3.93;2.90;;;10.60;99.90;;;;;;5055092;28;20188;-76
2022/11/11 00:38:48;;;;;;;5.03;3.17;;;10.60;99.90;;;;;;5054952;28;20205;-76
2022/11/11 00:41:25;;;;;;;4.30;2.77;;;10.60;99.90;;;;;;5054988;28;20268;-77
2022/11/11 00:43:54;;;;;;;4.87;3.07;;;10.60;99.90;;;;;;5053488;28;20192;-76
2022/11/11 00:51:47;;;;;;;4.47;2.73;;;10.60;99.90;;;;;;5063971;28;20231;-76
2022/11/11 00:54:13;;;;;;;3.95;2.72;;;10.60;99.90;;;;;;5070023;28;20201;-76
2022/11/11 00:56:38;;;;;;;4.63;2.50;;;10.60;99.90;;;;;;5055413;28;20180;-76
2022/11/11 00:59:07;;;;;;;4.20;2.67;;;10.50;99.90;;;;;;5049979;28;20182;-76
2022/11/11 01:01:34;;;;;;;4.27;2.80;;;10.50;99.90;;;;;;5035079;28;20182;-76
2022/11/11 01:04:22;;;;;;;5.20;2.70;;;10.50;99.90;;;;;;5036876;28;20221;-76
2022/11/11 01:06:48;;;;;;;5.23;2.80;;;10.50;99.90;;;;;;5057363;28;20201;-76
2022/11/11 01:09:13;;;;;;;5.47;2.87;;;10.50;99.90;;;;;;5044136;28;20236;-76
2022/11/11 01:11:42;;;;;;;4.80;2.73;;;10.40;99.90;;;;;;5054244;28;20177;-77
2022/11/11 01:14:10;;;;;;;3.97;2.53;;;10.40;99.90;;;;;;5051762;28;20197;-75
2022/11/11 01:16:37;;;;;;;3.70;2.33;;;10.40;99.90;;;;;;5054223;28;20170;-77
2022/11/11 01:19:05;;;;;;;3.73;2.50;;;10.40;99.90;;;;;;5053956;28;20203;-76
2022/11/11 01:21:31;;;;;;;3.77;2.30;;;10.40;99.90;;;;;;5057985;28;20322;-76
2022/11/11 01:23:59;;;;;;;2.80;2.03;;;10.30;99.90;;;;;;5057246;28;20215;-77
2022/11/11 01:26:27;;;;;;;3.57;2.77;;;10.30;99.90;;;;;;5064980;28;20205;-77
2022/11/11 01:28:54;;;;;;;4.13;2.67;;;10.20;99.90;;;;;;5049649;28;20222;-76
2022/11/11 01:31:22;;;;;;;3.53;2.70;;;10.30;99.90;;;;;;5054053;28;20170;-77
2022/11/11 01:33:48;;;;;;;4.17;2.50;;;10.20;99.90;;;;;;5053989;28;20172;-76
2022/11/11 01:36:25;;;;;;;2.97;2.43;;;10.20;99.90;;;;;;5053491;28;20204;-76
2022/11/11 01:38:56;;;;;;;3.83;2.70;;;10.20;99.90;;;;;;5062223;28;20172;-76
2022/11/11 01:41:34;;;;;;;4.13;2.30;;;10.20;99.90;;;;;;5037481;28;20305;-75
2022/11/11 01:44:39;;;;;;;3.17;2.33;;;10.20;99.90;;;;;;5054250;28;20177;-76
2022/11/11 01:47:06;;;;;;;4.63;2.10;;;10.20;99.90;;;;;;5068246;28;20177;-76
2022/11/11 01:49:55;;;;;;;3.80;2.80;;;10.20;99.90;;;;;;5055635;28;20169;-75
2022/11/11 01:52:30;;;;;;;4.23;2.10;;;10.20;99.90;;;;;;5053900;28;20184;-77
2022/11/11 01:55:13;;;;;;;4.80;2.63;;;10.20;99.90;;;;;;5054061;28;20177;-75
2022/11/11 01:58:01;;;;;;;4.13;2.43;;;10.20;99.90;;;;;;5040601;28;20196;-76
2022/11/11 02:00:29;;;;;;;4.93;2.47;;;10.20;99.90;;;;;;5065651;28;20251;-76
2022/11/11 02:03:03;;;;;;;4.33;2.13;;;10.10;99.90;;;;;;5053902;28;20174;-76
2022/11/11 02:05:44;;;;;;;2.97;2.27;;;10.10;99.90;;;;;;5070137;28;20193;-75
2022/11/11 02:08:31;;;;;;;3.30;2.30;;;10.20;99.90;;;;;;5062676;28;20206;-77
2022/11/11 02:11:10;;;;;;;3.47;2.47;;;10.10;99.90;;;;;;5053788;28;20180;-77
2022/11/11 02:16:29;;;;;;;2.60;2.10;;;10.10;99.90;;;;;;5055204;28;20235;-76
2022/11/11 02:18:55;;;;;;;4.27;2.30;;;10.10;99.90;;;;;;5058874;28;20404;-77
2022/11/11 02:21:39;;;;;;;3.50;2.20;;;10.10;99.90;;;;;;5062391;28;20176;-76
2022/11/11 02:24:11;;;;;;;3.20;2.40;;;10.10;99.90;;;;;;5059902;28;20183;-76
2022/11/11 02:26:38;;;;;;;4.03;2.37;;;10.10;99.90;;;;;;5057337;28;20201;-76
2022/11/11 02:29:09;;;;;;;3.77;2.67;;;10.10;99.90;;;;;;5063691;28;20235;-76
2022/11/11 02:31:38;;;;;;;4.40;2.60;;;10.10;99.90;;;;;;5071602;28;20263;-76
2022/11/11 02:34:04;;;;;;;4.23;2.70;;;10.10;99.90;;;;;;5060658;28;20204;-76
2022/11/11 02:36:29;;;;;;;3.97;2.97;;;10.10;99.90;;;;;;5056462;28;20178;-76
2022/11/11 02:38:55;;;;;;;4.30;2.93;;;10.00;99.90;;;;;;5053397;28;20274;-76
2022/11/11 02:44:05;;;;;;;3.33;2.30;;;10.00;99.90;;;;;;5057548;28;20327;-77
2022/11/11 02:46:30;;;;;;;5.53;2.80;;;10.00;99.90;;;;;;5056360;28;20268;-76
2022/11/11 02:48:56;;;;;;;4.53;2.53;;;10.00;99.90;;;;;;5064075;28;20208;-77
2022/11/11 02:51:22;;;;;;;4.90;2.70;;;10.00;99.90;;;;;;5061601;28;20203;-77
2022/11/11 02:53:50;;;;;;;3.10;2.50;;;10.00;99.90;;;;;;5056985;28;20181;-76
2022/11/11 02:57:05;;;;;;;4.20;2.50;;;10.00;99.90;;;;;;5043988;28;20174;-78
2022/11/11 02:59:01;;;;;;;4.23;2.20;;;10.00;99.90;;;;;;5052738;28;20270;-78
2022/11/11 03:01:27;;;;;;;3.93;2.50;;;10.00;99.90;;;;;;5059127;28;20212;-77
2022/11/11 03:03:52;;;;;;;3.17;2.30;;;10.10;99.90;;;;;;5056292;28;20166;-77
2022/11/11 03:06:20;;;;;;;3.90;2.50;;;10.00;99.90;;;;;;5053376;28;20170;-77
2022/11/11 03:08:46;;;;;;;3.83;2.70;;;10.00;99.90;;;;;;5050537;28;20194;-76
2022/11/11 03:11:14;;;;;;;3.40;2.40;;;10.00;99.90;;;;;;5056778;28;20179;-75
2022/11/11 03:13:42;;;;;;;4.43;2.50;;;10.00;99.90;;;;;;5056334;28;20177;-77
2022/11/11 03:17:38;;;;;;;4.13;2.70;;;9.90;99.90;;;;;;5056018;28;20204;-76
2022/11/11 03:18:53;;;;;;;5.93;2.67;;;10.00;99.90;;;;;;5056638;28;20205;-77
2022/11/11 03:21:21;;;;;;;5.03;2.80;;;10.00;99.90;;;;;;5053596;28;20220;-77
2022/11/11 03:23:49;;;;;;;3.60;2.70;;;10.00;99.90;;;;;;5044675;28;20208;-78
2022/11/11 03:26:18;;;;;;;3.23;2.50;;;10.00;99.90;;;;;;5053967;28;20181;-77
2022/11/11 03:28:46;;;;;;;4.43;2.90;;;10.00;99.90;;;;;;5053675;28;20213;-78
2022/11/11 03:31:12;;;;;;;3.83;2.60;;;10.00;99.90;;;;;;5066063;28;20203;-76
2022/11/11 03:33:37;;;;;;;4.03;2.73;;;9.90;99.90;;;;;;5063748;28;20165;-77
2022/11/11 03:36:03;;;;;;;4.57;3.00;;;9.90;99.90;;;;;;5054628;28;20224;-77
2022/11/11 03:38:29;;;;;;;4.17;2.93;;;9.90;99.90;;;;;;5055731;28;20181;-76
2022/11/11 03:40:57;;;;;;;5.20;3.20;;;9.90;99.90;;;;;;5054406;28;20191;-77
2022/11/11 03:43:27;;;;;;;4.77;2.80;;;9.80;99.90;;;;;;5054037;28;20185;-76
2022/11/11 03:45:57;;;;;;;3.70;3.10;;;9.90;99.90;;;;;;5047105;28;20198;-76
2022/11/11 03:48:26;;;;;;;3.33;2.80;;;9.90;99.90;;;;;;5053374;28;20198;-77
2022/11/11 03:50:52;;;;;;;5.87;3.23;;;9.90;99.90;;;;;;5055474;28;20197;-76
2022/11/11 03:53:22;;;;;;;4.23;2.63;;;9.90;99.90;;;;;;5055622;28;20177;-76
2022/11/11 03:55:51;;;;;;;3.47;2.93;;;9.90;99.90;;;;;;5052016;28;20182;-77
2022/11/11 03:58:17;;;;;;;5.03;3.23;;;9.90;99.90;;;;;;5045329;28;20205;-77
2022/11/11 04:00:45;;;;;;;4.60;3.20;;;9.90;99.90;;;;;;5055316;28;20173;-77
2022/11/11 04:11:38;;;;;;;4.67;2.67;;;9.90;99.90;;;;;;5057077;28;20231;-77
2022/11/11 04:16:52;;;;;;;5.70;3.03;;;9.90;99.90;;;;;;5051086;28;20193;-76
2022/11/11 04:22:02;;;;;;;3.70;2.77;;;9.90;99.90;;;;;;5052112;28;20192;-77
2022/11/11 04:27:15;;;;;;;3.53;2.70;;;9.90;99.90;;;;;;5055849;28;20188;-76
2022/11/11 04:29:43;;;;;;;4.53;3.30;;;9.90;99.90;;;;;;5042984;28;20340;-77
2022/11/11 04:35:06;;;;;;;5.33;3.20;;;9.90;99.90;;;;;;5048732;28;20201;-77
2022/11/11 04:37:36;;;;;;;4.97;2.93;;;9.90;99.90;;;;;;5055182;28;20170;-76
2022/11/11 04:42:46;;;;;;;5.63;3.33;;;9.80;99.90;;;;;;5071647;28;20263;-77
2022/11/11 04:45:29;;;;;;;3.90;3.00;;;9.80;99.90;;;;;;5054651;28;20224;-76
2022/11/11 04:48:06;;;;;;;4.30;2.97;;;9.80;99.90;;;;;;5040454;28;20197;-76
2022/11/11 04:50:33;;;;;;;4.43;3.10;;;9.80;99.90;;;;;;5052365;28;20172;-76
2022/11/11 04:53:00;;;;;;;3.93;2.90;;;9.80;99.90;;;;;;5054500;28;20180;-77
2022/11/11 04:58:11;;;;;;;3.50;2.97;;;9.80;99.90;;;;;;5047380;28;20331;-76
2022/11/11 05:00:39;;;;;;;3.40;2.80;;;9.80;99.90;;;;;;5055585;28;20170;-76
2022/11/11 05:03:20;;;;;;;7.57;6.03;;;9.80;99.90;;;;;;5048477;28;20185;-77
2022/11/11 05:08:57;;;;;;;5.40;3.30;;;9.80;99.90;;;;;;5049218;28;20208;-76
2022/11/11 05:11:36;;;;;;;4.40;2.90;;;9.80;99.90;;;;;;5060977;28;20204;-77
2022/11/11 05:22:43;;;;;;;4.77;2.70;;;9.80;99.90;;;;;;5067950;28;20199;-77
2022/11/11 05:25:28;;;;;;;4.40;2.83;;;9.80;99.90;;;;;;5070919;28;20193;-77
2022/11/11 05:27:57;;;;;;;5.07;3.10;;;9.90;99.90;;;;;;5051679;28;20208;-77
2022/11/11 05:30:26;;;;;;;6.93;4.63;;;9.80;99.90;;;;;;5038720;28;20257;-78
2022/11/11 05:32:54;;;;;;;5.97;4.10;;;9.80;99.90;;;;;;5039223;28;20201;-84
2022/11/11 05:35:20;;;;;;;5.53;4.10;;;9.80;99.90;;;;;;5054393;28;20204;-85
2022/11/11 05:38:19;;;;;;;4.63;3.30;;;9.80;99.90;;;;;;5052198;28;20182;-87
2022/11/11 05:40:34;;;;;;;5.93;3.70;;;9.80;99.90;;;;;;5040460;28;20198;-82
2022/11/11 05:42:59;;;;;;;5.13;3.10;;;9.90;99.90;;;;;;5060465;28;20178;-83
2022/11/11 05:45:25;;;;;;;4.97;3.17;;;9.80;99.90;;;;;;5050230;28;20257;-86
2022/11/11 05:47:51;;;;;;;4.50;3.23;;;9.90;99.90;;;;;;5051150;28;20202;-87
2022/11/11 05:50:19;;;;;;;4.80;3.30;;;9.80;99.90;;;;;;5056568;28;20189;-86
2022/11/11 05:52:49;;;;;;;5.00;3.10;;;9.80;99.90;;;;;;5057885;28;20177;-87
2022/11/11 05:55:17;;;;;;;4.40;2.90;;;9.80;99.90;;;;;;5056518;28;20192;-85
2022/11/11 05:57:46;;;;;;;4.73;3.10;;;9.90;99.90;;;;;;5043961;28;20174;-85
2022/11/11 06:00:12;;;;;;;5.50;3.27;;;9.80;99.90;;;;;;5057677;28;20197;-83
2022/11/11 06:02:38;;;;;;;4.70;3.50;;;9.80;99.90;;;;;;5057596;28;20272;-85
2022/11/11 06:05:07;;;;;;;5.00;3.40;;;9.80;99.90;;;;;;5044101;28;20235;-83
2022/11/11 06:07:36;;;;;;;6.23;3.37;;;9.80;99.90;;;;;;5057452;28;20200;-86
2022/11/11 06:10:29;;;;;;;7.50;3.53;;;9.80;99.90;;;;;;5053407;28;20177;-86
2022/11/11 06:13:08;;;;;;;5.17;3.30;;;9.80;99.90;;;;;;5055207;28;20173;-85
2022/11/11 06:15:40;;;;;;;5.13;3.30;;;9.80;99.90;;;;;;5037915;28;20213;-83
2022/11/11 06:18:06;;;;;;;6.00;3.53;;;9.80;99.90;;;;;;5054354;28;20189;-88
2022/11/11 06:20:34;;;;;;;4.33;3.03;;;9.80;99.90;;;;;;5057374;28;20180;-90
2022/11/11 06:23:00;;;;;;;4.57;3.27;;;9.80;99.90;;;;;;5058090;28;20193;-84
2022/11/11 06:28:16;;;;;;;5.93;3.43;;;9.80;99.90;;;;;;5046315;28;20240;-85
2022/11/11 06:30:42;;;;;;;5.40;3.30;;;9.80;99.90;;;;;;5043222;28;20209;-84
2022/11/11 06:33:08;;;;;;;6.13;3.93;;;9.80;99.90;;;;;;5057379;28;20182;-84
2022/11/11 06:35:41;;;;;;;5.20;3.40;;;9.80;99.90;;;;;;5056887;28;20192;-81
2022/11/11 06:38:07;;;;;;;4.30;3.40;;;9.70;99.90;;;;;;5057960;28;20185;-87
2022/11/11 06:40:32;;;;;;;4.53;3.43;;;9.80;99.90;;;;;;5057762;28;20239;-81
2022/11/11 06:42:59;;;;;;;5.43;3.37;;;9.80;99.90;;;;;;5038204;28;20184;-85
2022/11/11 06:45:29;;;;;;;6.23;3.77;;;9.80;99.90;;;;;;5058024;28;20231;-82
2022/11/11 06:47:55;;;;;;;4.63;3.70;;;9.80;99.90;;;;;;5058160;28;20205;-85
2022/11/11 06:50:23;;;;;;;3.70;2.93;;;9.80;99.90;;;;;;5058103;28;20170;-86
2022/11/11 06:52:49;;;;;;;5.27;3.20;;;9.80;99.90;;;;;;5054217;28;20274;-83
2022/11/11 06:55:15;;;;;;;6.57;4.07;;;9.80;99.90;;;;;;5043575;28;20284;-85
2022/11/11 06:57:46;;;;;;;5.33;3.70;;;9.80;99.90;;;;;;5056680;28;20208;-86
2022/11/11 07:00:12;;;;;;;6.87;4.07;;;9.80;99.90;;;;;;5056258;28;20173;-85
2022/11/11 07:02:41;;;;;;;6.37;3.47;;;9.80;99.90;;;;;;5048571;28;20185;-80
2022/11/11 07:05:07;;;;;;;7.23;3.77;;;9.70;99.90;;;;;;5056558;28;20173;-85
2022/11/11 07:07:32;;;;;;;7.27;4.13;;;9.80;99.90;;;;;;5050390;28;20201;-86
2022/11/11 07:09:58;;;;;;;5.80;4.03;;;9.80;99.90;;;;;;5053140;28;20170;-85
2022/11/11 07:12:26;;;;;;;9.03;4.40;;;9.80;99.90;;;;;;5056970;28;20417;-80
2022/11/11 07:14:52;;;;;;;10.77;4.60;;;9.80;99.90;;;;;;5055460;28;20243;-82
2022/11/11 07:17:19;;;;;;;7.03;4.10;;;9.80;99.90;;;;;;5056559;28;20206;-84
2022/11/11 07:19:48;;;;;;;5.90;4.20;;;9.80;99.90;;;;;;5057178;28;20193;-84
2022/11/11 07:22:14;;;;;;;6.13;4.03;;;9.80;99.90;;;;;;5054174;28;20182;-85
2022/11/11 07:24:40;;;;;;;5.60;3.97;;;9.80;99.90;;;;;;5045999;28;20178;-84
2022/11/11 07:27:08;;;;;;;7.00;4.17;;;9.80;99.90;;;;;;5047307;28;20219;-84
2022/11/11 07:29:34;;;;;;;6.43;4.13;;;9.80;99.90;;;;;;5043775;28;20207;-85
2022/11/11 07:31:59;;;;;;;5.50;3.90;;;9.80;99.90;;;;;;5056188;28;20177;-86
2022/11/11 07:34:27;;;;;;;5.43;3.70;;;9.90;99.90;;;;;;5055548;28;20197;-84
2022/11/11 07:36:55;;;;;;;6.73;4.00;;;9.90;99.90;;;;;;5055797;28;20174;-83
2022/11/11 07:39:21;;;;;;;8.27;4.23;;;9.90;99.90;;;;;;5052812;28;20174;-84
2022/11/11 07:41:47;;;;;;;4.53;3.40;;;10.00;99.90;;;;;;5036518;28;20272;-83
2022/11/11 07:44:12;;;;;;;4.97;3.33;;;9.90;99.90;;;;;;5048244;28;20205;-85
2022/11/11 07:46:47;;;;;;;6.80;4.10;;;10.00;99.90;;;;;;5056527;28;20204;-84
2022/11/11 07:49:13;;;;;;;6.40;3.70;;;10.00;99.90;;;;;;5036560;28;20201;-80
2022/11/11 07:51:38;;;;;;;6.23;3.80;;;10.00;99.90;;;;;;5043461;28;20165;-86
2022/11/11 07:54:06;;;;;;;5.90;3.63;;;10.10;99.90;;;;;;5037523;28;20177;-88
2022/11/11 07:56:32;;;;;;;5.57;3.80;;;10.10;99.90;;;;;;5035931;28;20170;-85
2022/11/11 07:59:02;;;;;;;6.93;3.80;;;10.10;99.90;;;;;;5037688;28;20182;-88
2022/11/11 08:01:28;;;;;;;4.97;3.50;;;10.10;99.90;;;;;;5041686;28;20173;-86
2022/11/11 08:03:56;;;;;;;5.10;3.60;;;10.20;99.90;;;;;;5055259;28;20311;-86
2022/11/11 08:06:27;;;;;;;4.70;3.20;;;10.20;99.90;;;;;;5052234;28;20174;-85
2022/11/11 08:08:53;;;;;;;6.10;3.67;;;10.20;99.90;;;;;;5039615;28;20209;-83
2022/11/11 08:13:39;;;;;;;4.90;3.17;;;10.30;99.90;;;;;;5048478;28;20178;-86
2022/11/11 08:14:07;;;;;;;5.77;3.70;;;10.30;99.90;;;;;;5055900;28;20209;-86
2022/11/11 08:16:33;;;;;;;5.10;3.43;;;10.40;99.90;;;;;;5055500;28;20185;-84
2022/11/11 08:19:00;;;;;;;5.80;4.03;;;10.40;99.90;;;;;;5046827;28;20212;-83
2022/11/11 08:21:28;;;;;;;9.00;4.13;;;10.40;99.90;;;;;;5051725;28;20195;-85
2022/11/11 08:23:54;;;;;;;5.33;3.90;;;10.50;99.90;;;;;;5054709;28;20178;-88
2022/11/11 08:26:24;;;;;;;6.37;3.90;;;10.60;99.90;;;;;;5043092;28;20208;-86
2022/11/11 08:28:52;;;;;;;6.70;3.60;;;10.60;99.90;;;;;;5055122;28;20225;-87
2022/11/11 08:31:17;;;;;;;5.03;3.43;;;10.60;99.90;;;;;;5053314;28;20184;-88
2022/11/11 08:33:43;;;;;;;5.47;3.60;;;10.80;99.90;;;;;;5055675;28;20173;-88
2022/11/11 08:36:10;;;;;;;6.47;3.80;;;10.80;99.90;;;;;;5055574;28;20173;-88
2022/11/11 08:38:36;;;;;;;5.10;3.50;;;10.80;99.90;;;;;;5054571;28;20240;-84
2022/11/11 08:41:04;;;;;;;4.75;4.00;;;10.90;99.90;;;;;;5054996;28;20184;-86
2022/11/11 08:43:33;;;;;;;3.97;3.30;;;11.00;99.90;;;;;;5054092;28;20256;-87
2022/11/11 08:46:02;;;;;;;7.05;3.53;;;11.00;99.90;;;;;;5054391;28;20296;-84
2022/11/11 08:48:31;;;;;;;5.68;3.80;;;11.00;99.90;;;;;;5038320;28;20205;-87
2022/11/11 08:50:57;;;;;;;4.93;3.40;;;11.10;99.90;;;;;;5054767;28;20184;-86
2022/11/11 08:53:23;;;;;;;6.82;3.42;;;11.20;99.90;;;;;;5054013;28;20189;-85
2022/11/11 08:55:51;;;;;;;4.95;3.72;;;11.20;99.90;;;;;;5038214;28;20189;-85
2022/11/11 08:58:17;;;;;;;6.18;4.03;;;11.30;99.90;;;;;;5034610;28;20201;-87
2022/11/11 09:00:43;;;;;;;5.68;3.63;;;11.40;99.90;;;;;;5043996;28;20173;-86
2022/11/11 09:03:10;;;;;;;6.10;3.40;;;11.50;99.90;;;;;;5054763;28;20173;-85
2022/11/11 09:05:40;;;;;;;6.15;3.58;;;11.50;99.90;;;;;;5053644;28;20196;-86
2022/11/11 09:08:07;;;;;;;4.90;3.00;;;11.70;99.90;;;;;;5054077;28;20583;-83
2022/11/11 09:10:33;;;;;;;4.72;3.35;;;11.90;99.90;;;;;;5054149;28;20173;-84
2022/11/11 09:13:00;;;;;;;7.00;3.75;;;12.00;99.90;;;;;;5042301;28;20200;-86
2022/11/11 09:15:26;;;;;;;5.78;3.40;;;12.20;99.90;;;;;;5047584;28;20237;-85
2022/11/11 09:17:55;;;;;;;5.18;3.38;;;12.30;99.90;;;;;;5050737;28;20281;-85
2022/11/11 09:20:22;;;;;;;5.72;3.20;;;12.50;99.90;;;;;;5050262;28;20193;-86
2022/11/11 09:22:48;;;;;;;5.15;3.30;;;12.50;99.90;;;;;;5054444;28;20208;-86
2022/11/11 09:25:17;;;;;;;5.65;3.70;;;12.60;99.90;;;;;;5054541;28;20235;-82
2022/11/11 09:27:43;;;;;;;4.32;2.97;;;12.70;99.90;;;;;;5054206;28;20212;-87
2022/11/11 09:30:12;;;;;;;5.85;3.60;;;12.80;99.90;;;;;;5054800;28;20180;-85
2022/11/11 09:32:42;;;;;;;5.93;3.75;;;12.90;99.90;;;;;;5052267;28;20170;-83
2022/11/11 09:35:08;;;;;;;5.43;3.53;;;12.90;99.90;;;;;;5048450;28;20166;-83
2022/11/11 09:37:33;;;;;;;5.70;3.22;;;13.00;99.90;;;;;;5073076;28;20205;-86
2022/11/11 09:40:01;;;;;;;5.53;3.92;;;13.00;99.90;;;;;;5057216;28;20228;-85
2022/11/11 09:42:41;;;;;;;4.70;3.25;;;13.00;99.90;;;;;;5051695;28;20174;-84
2022/11/11 09:45:41;;;;;;;4.05;2.78;;;13.00;99.90;;;;;;5046236;28;20189;-85
2022/11/11 09:48:18;;;;;;;4.72;3.20;;;13.10;99.90;;;;;;5057266;28;20205;-85
2022/11/11 09:50:59;;;;;;;5.80;3.60;;;13.10;99.90;;;;;;5055366;28;20200;-86
2022/11/11 09:53:54;;;;;;;5.00;3.13;;;13.30;99.90;;;;;;5048705;28;20269;-87
2022/11/11 09:56:22;;;;;;;6.30;3.58;;;13.40;99.90;;;;;;5054116;28;20188;-86
2022/11/11 09:59:00;;;;;;;6.22;3.35;;;13.40;99.90;;;;;;5043328;28;20288;-84
2022/11/11 10:01:35;;;;;;;5.22;3.60;;;13.50;99.90;;;;;;5050465;28;20173;-83
2022/11/11 10:04:26;;;;;;;4.47;2.70;;;13.60;99.90;;;;;;5053017;28;20177;-83
2022/11/11 10:07:18;;;;;;;4.50;3.03;;;13.70;99.90;;;;;;5049188;28;20173;-85
2022/11/11 10:09:57;;;;;;;3.63;2.70;;;13.80;99.90;;;;;;5048877;28;20247;-84
2022/11/11 10:12:32;;;;;;;5.40;2.72;;;14.00;99.90;;;;;;5052174;28;20204;-85
2022/11/11 10:15:00;;;;;;;4.57;2.85;;;14.10;99.90;;;;;;5036884;28;20162;-85
2022/11/11 10:17:31;;;;;;;3.83;2.60;;;14.20;99.90;;;;;;5055510;28;20185;-85
2022/11/11 10:19:59;;;;;;;4.03;2.78;;;14.30;99.90;;;;;;5059126;28;20183;-85
2022/11/11 10:22:37;;;;;;;4.82;2.70;;;14.40;99.90;;;;;;5056287;28;20173;-86
2022/11/11 10:25:06;;;;;;;3.90;2.53;;;14.50;99.90;;;;;;5052186;28;20198;-87
2022/11/11 10:27:35;;;;;;;3.85;2.53;;;14.70;99.90;;;;;;5003356;28;1122129;-86
2022/11/11 10:30:17;;;;;;;4.70;2.90;;;14.80;99.90;;;;;;5050435;28;20173;-84
2022/11/11 10:32:53;;;;;;;5.45;2.45;;;15.00;99.90;;;;;;5043739;28;20177;-84
2022/11/11 10:35:22;;;;;;;3.40;2.40;;;15.10;99.90;;;;;;5046472;28;20243;-83
2022/11/11 10:37:59;;;;;;;4.40;2.63;;;15.20;99.90;;;;;;5056128;28;20209;-85
2022/11/11 10:40:35;;;;;;;4.47;2.60;;;15.30;99.90;;;;;;5057106;28;20165;-85
2022/11/11 10:43:03;;;;;;;3.70;2.35;;;15.40;99.90;;;;;;5054745;28;20177;-84
2022/11/11 10:45:47;;;;;;;4.25;2.70;;;15.40;99.90;;;;;;5056746;28;20177;-83
2022/11/11 10:48:19;;;;;;;4.65;2.45;;;15.40;99.90;;;;;;5057089;28;20193;-85
2022/11/11 10:50:52;;;;;;;3.28;2.05;;;15.50;99.90;;;;;;5056463;28;20280;-83
2022/11/11 10:53:46;;;;;;;3.75;2.17;;;15.50;99.90;;;;;;5055539;28;20243;-85
2022/11/11 10:56:25;;;;;;;2.30;2.00;;;15.60;99.90;;;;;;5053305;28;20217;-84
2022/11/11 10:58:56;;;;;;;4.43;2.17;;;15.60;99.90;;;;;;5043799;28;20173;-85
2022/11/11 11:01:51;;;;;;;3.53;2.20;;;15.70;99.90;;;;;;5056115;28;20243;-83
2022/11/11 11:04:36;;;;;;;3.08;2.10;;;15.80;99.90;;;;;;5056732;28;20178;-83
2022/11/11 11:07:07;;;;;;;3.72;2.08;;;15.90;99.90;;;;;;5055709;28;20173;-84
2022/11/11 11:09:42;;;;;;;3.88;2.30;;;15.90;99.90;;;;;;5056838;28;20205;-85
2022/11/11 11:12:23;;;;;;;5.57;2.42;;;16.00;99.90;;;;;;5056620;28;20185;-85
2022/11/11 11:14:54;;;;;;;3.55;1.85;;;16.10;99.90;;;;;;5055654;28;20204;-84
2022/11/11 11:17:27;;;;;;;3.40;2.15;;;16.20;99.90;;;;;;5048838;28;20182;-84
2022/11/11 11:20:13;;;;;;;2.80;2.13;;;16.20;99.90;;;;;;5042979;28;20175;-82
2022/11/11 11:22:51;;;;;;;3.53;2.08;;;16.30;99.90;;;;;;5044655;28;20260;-84
2022/11/11 11:25:22;;;;;;;5.20;2.85;;;16.40;99.90;;;;;;5052238;28;20165;-82
2022/11/11 11:28:05;;;;;;;5.65;2.40;;;16.50;99.90;;;;;;5067688;28;20224;-81
2022/11/11 11:30:30;;;;;;;3.60;1.80;;;16.60;99.90;;;;;;5056373;28;20180;-81
2022/11/11 11:32:57;;;;;;;2.75;1.42;;;16.60;99.90;;;;;;5056006;28;20184;-83
2022/11/11 11:35:31;;;;;;;3.58;2.08;;;16.70;99.90;;;;;;5054647;28;20430;-83
2022/11/11 11:37:59;;;;;;;2.35;1.60;;;16.70;99.90;;;;;;5036875;28;20185;-83
2022/11/11 11:40:43;;;;;;;2.92;1.80;;;16.80;99.90;;;;;;5056200;28;20200;-81
2022/11/11 11:43:26;;;;;;;2.42;1.58;;;16.80;99.90;;;;;;5048273;28;20177;-81
2022/11/11 11:45:58;;;;;;;2.40;1.92;;;16.90;99.90;;;;;;5049082;28;20216;-82
2022/11/11 11:48:51;;;;;;;2.40;1.63;;;17.00;99.90;;;;;;5054856;28;20193;-85
2022/11/11 11:51:43;;;;;;;2.78;1.85;;;17.10;99.90;;;;;;5047311;28;20520;-84
2022/11/11 11:54:27;;;;;;;3.33;1.50;;;17.20;99.90;;;;;;5048454;28;20174;-81
2022/11/11 11:57:00;;;;;;;2.47;1.60;;;17.30;99.90;;;;;;5053755;28;20174;-84
2022/11/11 11:59:29;;;;;;;3.03;1.60;;;17.30;99.90;;;;;;5055326;28;20235;-84
2022/11/11 12:02:26;;;;;;;2.38;1.50;;;17.40;99.90;;;;;;5047890;28;20200;-83
2022/11/11 12:04:58;;;;;;;1.80;1.50;;;17.50;99.90;;;;;;5053625;28;20201;-82
2022/11/11 12:07:48;;;;;;;2.80;1.40;;;17.60;99.90;;;;;;5047398;28;20215;-80
2022/11/11 12:10:28;;;;;;;2.10;1.30;;;17.70;99.90;;;;;;5055559;28;20188;-84
2022/11/11 12:13:32;;;;;;;2.03;1.40;;;17.90;99.90;;;;;;5053171;28;20226;-81
2022/11/11 12:16:21;;;;;;;2.33;1.58;;;18.00;99.90;;;;;;5045397;28;20173;-82
2022/11/11 12:19:17;;;;;;;1.73;1.25;;;18.20;99.90;;;;;;5055003;28;20189;-80
2022/11/11 12:21:58;;;;;;;3.58;1.40;;;18.40;99.90;;;;;;5040899;28;20190;-82
2022/11/11 12:24:45;;;;;;;3.58;1.02;;;18.50;99.90;;;;;;5055007;28;20283;-83
2022/11/11 12:27:19;;;;;;;1.58;1.10;;;18.50;99.90;;;;;;5053659;28;20256;-84
2022/11/11 12:29:56;;;;;;;2.17;1.27;;;18.60;99.90;;;;;;5053972;28;20201;-82
2022/11/11 12:32:25;;;;;;;3.63;1.30;;;18.60;99.90;;;;;;5055439;28;20173;-81
2022/11/11 12:35:27;;;;;;;1.90;1.30;;;18.60;99.90;;;;;;5054135;28;20196;-80
2022/11/11 12:38:25;;;;;;;1.75;1.25;;;18.60;99.90;;;;;;5047806;28;20176;-80
2022/11/11 12:41:25;;;;;;;1.77;1.00;;;18.60;99.90;;;;;;5053127;28;20177;-80
2022/11/11 12:44:03;;;;;;;1.83;1.23;;;18.60;99.90;;;;;;5054555;28;20197;-79
2022/11/11 12:46:52;;;;;;;4.18;1.52;;;18.70;99.90;;;;;;5054201;28;20184;-81
2022/11/11 12:49:18;;;;;;;2.10;1.15;;;18.70;99.90;;;;;;5053298;28;20209;-81
2022/11/11 12:52:02;;;;;;;2.25;1.38;;;18.80;99.90;;;;;;5035425;28;20475;-82
2022/11/11 12:54:59;;;;;;;2.42;1.33;;;18.90;99.90;;;;;;5045892;28;20182;-81
2022/11/11 12:57:55;;;;;;;2.47;1.30;;;19.00;99.90;;;;;;5044266;28;20173;-82
2022/11/11 13:00:22;;;;;;;2.33;1.27;;;19.00;99.90;;;;;;5046398;28;20204;-81
2022/11/11 13:03:19;;;;;;;2.10;1.38;;;19.10;99.90;;;;;;5063009;28;20250;-82
2022/11/11 13:06:08;;;;;;;1.88;1.17;;;19.10;99.90;;;;;;5046219;28;20228;-82
2022/11/11 13:08:46;;;;;;;1.65;1.27;;;19.20;99.90;;;;;;5042813;28;20209;-81
2022/11/11 13:11:42;;;;;;;1.83;1.27;;;19.20;99.90;;;;;;5045223;28;20234;-81
2022/11/11 13:14:26;;;;;;;3.22;1.80;;;19.30;99.90;;;;;;5054399;28;20180;-81
2022/11/11 13:16:58;;;;;;;2.85;1.83;;;19.40;99.90;;;;;;5054361;28;20177;-79
2022/11/11 13:19:51;;;;;;;2.90;1.52;;;19.30;99.90;;;;;;5046818;28;20197;-82
2022/11/11 13:22:20;;;;;;;2.70;1.88;;;19.30;99.90;;;;;;5054134;28;20222;-81
2022/11/11 13:24:48;;;;;;;2.05;1.25;;;19.30;99.90;;;;;;5050818;28;20216;-82
2022/11/11 13:27:38;;;;;;;2.35;1.42;;;19.30;99.90;;;;;;5054103;28;20236;-82
2022/11/11 13:30:24;;;;;;;3.15;1.90;;;19.40;99.90;;;;;;5049826;28;20346;-82
2022/11/11 13:33:03;;;;;;;2.40;1.70;;;19.40;99.90;;;;;;5050113;28;20315;-80
2022/11/11 13:35:34;;;;;;;2.55;1.48;;;19.40;99.90;;;;;;5045198;28;20245;-81
2022/11/11 13:38:01;;;;;;;2.00;1.65;;;19.40;99.90;;;;;;5053789;28;20169;-82
2022/11/11 13:40:41;;;;;;;2.70;1.40;;;19.40;99.90;;;;;;5048835;28;20198;-81
2022/11/11 13:43:39;;;;;;;3.08;1.40;;;19.40;99.90;;;;;;5050502;28;20188;-82
2022/11/11 13:46:27;;;;;;;2.72;1.70;;;19.30;99.90;;;;;;5054391;28;20295;-81
2022/11/11 13:48:54;;;;;;;3.08;1.70;;;19.30;99.90;;;;;;5054612;28;20208;-81
2022/11/11 13:51:35;;;;;;;3.15;1.60;;;19.30;99.90;;;;;;5053838;28;20184;-84
2022/11/11 13:54:06;;;;;;;1.90;1.20;;;19.30;99.90;;;;;;5053903;28;20251;-80
2022/11/11 13:56:44;;;;;;;2.20;1.33;;;19.30;99.90;;;;;;5040068;28;20255;-83
2022/11/11 13:59:30;;;;;;;3.22;1.67;;;19.30;99.90;;;;;;5057288;28;20193;-82
2022/11/11 14:02:25;;;;;;;2.53;1.55;;;19.30;99.90;;;;;;5063943;28;20181;-81
2022/11/11 14:05:07;;;;;;;2.47;1.50;;;19.30;99.90;;;;;;5057361;28;20192;-82
2022/11/11 14:07:52;;;;;;;3.72;1.60;;;19.30;99.90;;;;;;5044377;28;20377;-81
2022/11/11 14:10:18;;;;;;;1.70;1.50;;;19.20;99.90;;;;;;5051759;28;20177;-80
2022/11/11 14:12:48;;;;;;;2.40;1.40;;;19.20;99.90;;;;;;5056243;28;20197;-82
2022/11/11 14:15:32;;;;;;;2.55;1.48;;;19.20;99.90;;;;;;5051475;28;20185;-81
2022/11/11 14:18:00;;;;;;;4.85;1.67;;;19.20;99.90;;;;;;5047375;28;20229;-81